createdAt,value
2018-04-01T00:00:09.162Z,802.51
2018-04-01T00:01:09.167Z,802.55
2018-04-01T00:02:09.163Z,802.56
2018-04-01T00:03:09.166Z,802.54
2018-04-01T00:04:09.180Z,802.57
2018-04-01T00:05:09.173Z,802.54
2018-04-01T00:06:09.176Z,802.55
2018-04-01T00:07:09.186Z,802.54
2018-04-01T00:08:09.183Z,802.50
2018-04-01T00:09:09.192Z,802.52
2018-04-01T00:10:09.195Z,802.53
2018-04-01T00:11:09.197Z,802.53
2018-04-01T00:12:09.200Z,802.57
2018-04-01T00:13:09.204Z,802.58
2018-04-01T00:14:09.206Z,802.63
2018-04-01T00:15:09.205Z,802.62
2018-04-01T00:16:09.206Z,802.67
2018-04-01T00:17:09.208Z,802.69
2018-04-01T00:18:09.214Z,802.70
2018-04-01T00:19:09.225Z,802.69
2018-04-01T00:20:09.219Z,802.70
2018-04-01T00:21:09.220Z,802.63
2018-04-01T00:22:09.231Z,802.60
2018-04-01T00:23:09.228Z,802.58
2018-04-01T00:24:09.240Z,802.52
2018-04-01T00:25:09.232Z,802.54
2018-04-01T00:26:09.235Z,802.53
2018-04-01T00:27:09.238Z,802.55
2018-04-01T00:28:09.249Z,802.56
2018-04-01T00:29:09.245Z,802.57
2018-04-01T00:30:09.252Z,802.59
2018-04-01T00:31:09.251Z,802.59
2018-04-01T00:32:09.254Z,802.61
2018-04-01T00:33:09.259Z,802.61
2018-04-01T00:34:09.264Z,802.63
2018-04-01T00:35:09.267Z,802.67
2018-04-01T00:36:09.265Z,802.69
2018-04-01T00:37:09.268Z,802.71
2018-04-01T00:38:09.275Z,802.77
2018-04-01T00:39:09.274Z,802.76
2018-04-01T00:40:09.282Z,802.75
2018-04-01T00:41:09.279Z,802.77
2018-04-01T00:42:09.288Z,802.74
2018-04-01T00:43:09.291Z,802.75
2018-04-01T00:44:09.294Z,802.77
2018-04-01T00:45:09.290Z,802.76
2018-04-01T00:46:09.297Z,802.74
2018-04-01T00:47:09.297Z,802.80
2018-04-01T00:48:09.311Z,802.78
2018-04-01T00:49:09.301Z,802.76
2018-04-01T00:50:09.310Z,802.74
2018-04-01T00:51:09.313Z,802.74
2018-04-01T00:52:09.314Z,802.72
2018-04-01T00:53:09.353Z,802.77
2018-04-01T00:54:09.317Z,802.78
2018-04-01T00:55:09.323Z,802.77
2018-04-01T00:56:09.323Z,802.81
2018-04-01T00:57:09.334Z,802.75
2018-04-01T00:58:09.334Z,802.79
2018-04-01T00:59:09.332Z,802.80
2018-04-01T01:00:09.339Z,802.87
2018-04-01T01:01:09.341Z,802.93
2018-04-01T01:02:09.345Z,802.91
2018-04-01T01:03:09.344Z,802.88
2018-04-01T01:04:09.346Z,802.91
2018-04-01T01:05:09.348Z,802.97
2018-04-01T01:06:09.373Z,802.99
2018-04-01T01:07:09.354Z,802.98
2018-04-01T01:08:09.363Z,803.00
2018-04-01T01:09:09.366Z,802.99
2018-04-01T01:10:09.369Z,803.01
2018-04-01T01:11:09.367Z,803.01
2018-04-01T01:12:09.375Z,803.06
2018-04-01T01:13:09.374Z,803.04
2018-04-01T01:14:09.374Z,803.07
2018-04-01T01:15:09.385Z,803.08
2018-04-01T01:16:09.387Z,803.09
2018-04-01T01:17:09.384Z,803.08
2018-04-01T01:18:09.393Z,803.10
2018-04-01T01:19:09.398Z,803.12
2018-04-01T01:20:09.398Z,803.12
2018-04-01T01:21:09.401Z,803.17
2018-04-01T01:22:09.404Z,803.14
2018-04-01T01:23:09.408Z,803.17
2018-04-01T01:24:09.410Z,803.19
2018-04-01T01:25:09.407Z,803.20
2018-04-01T01:26:09.416Z,803.14
2018-04-01T01:27:09.418Z,803.15
2018-04-01T01:28:09.423Z,803.20
2018-04-01T01:29:09.425Z,803.20
2018-04-01T01:30:09.430Z,803.19
2018-04-01T01:31:09.426Z,803.20
2018-04-01T01:32:09.428Z,803.21
2018-04-01T01:33:09.436Z,803.19
2018-04-01T01:34:09.441Z,803.24
2018-04-01T01:35:09.436Z,803.24
2018-04-01T01:36:09.446Z,803.27
2018-04-01T01:37:09.447Z,803.33
2018-04-01T01:38:09.452Z,803.37
2018-04-01T01:39:09.454Z,803.33
2018-04-01T01:40:09.452Z,803.33
2018-04-01T01:41:09.458Z,803.40
2018-04-01T01:42:09.455Z,803.42
2018-04-01T01:43:09.460Z,803.40
2018-04-01T01:44:09.464Z,803.46
2018-04-01T01:45:09.465Z,803.43
2018-04-01T01:46:09.470Z,803.49
2018-04-01T01:47:09.475Z,803.50
2018-04-01T01:48:09.481Z,803.49
2018-04-01T01:49:09.477Z,803.54
2018-04-01T01:50:09.486Z,803.49
2018-04-01T01:51:09.483Z,803.49
2018-04-01T01:52:09.493Z,803.52
2018-04-01T01:53:09.489Z,803.53
2018-04-01T01:54:09.496Z,803.54
2018-04-01T01:55:09.496Z,803.54
2018-04-01T01:56:09.502Z,803.49
2018-04-01T01:57:09.506Z,803.48
2018-04-01T01:58:09.509Z,803.46
2018-04-01T01:59:09.512Z,803.51
2018-04-01T02:00:09.511Z,803.50
2018-04-01T02:01:09.516Z,803.53
2018-04-01T02:02:09.515Z,803.49
2018-04-01T02:03:09.520Z,803.52
2018-04-01T02:04:09.521Z,803.50
2018-04-01T02:05:09.523Z,803.52
2018-04-01T02:06:09.527Z,803.48
2018-04-01T02:07:09.530Z,803.52
2018-04-01T02:08:09.533Z,803.51
2018-04-01T02:09:09.542Z,803.55
2018-04-01T02:10:09.545Z,803.54
2018-04-01T02:11:09.547Z,803.58
2018-04-01T02:12:09.550Z,803.58
2018-04-01T02:13:09.551Z,803.58
2018-04-01T02:14:09.550Z,803.60
2018-04-01T02:15:09.560Z,803.64
2018-04-01T02:16:09.560Z,803.62
2018-04-01T02:17:09.558Z,803.63
2018-04-01T02:18:09.567Z,803.64
2018-04-01T02:19:09.564Z,803.62
2018-04-01T02:20:09.571Z,803.63
2018-04-01T02:21:09.573Z,803.60
2018-04-01T02:22:09.573Z,803.62
2018-04-01T02:23:09.581Z,803.57
2018-04-01T02:24:09.583Z,803.62
2018-04-01T02:25:09.584Z,803.61
2018-04-01T02:26:09.583Z,803.61
2018-04-01T02:27:09.586Z,803.61
2018-04-01T02:28:09.594Z,803.63
2018-04-01T02:29:09.596Z,803.65
2018-04-01T02:30:09.598Z,803.62
2018-04-01T02:31:09.597Z,803.63
2018-04-01T02:32:09.601Z,803.65
2018-04-01T02:33:09.607Z,803.66
2018-04-01T02:34:09.610Z,803.69
2018-04-01T02:35:09.613Z,803.63
2018-04-01T02:36:09.608Z,803.65
2018-04-01T02:37:09.611Z,803.65
2018-04-01T02:38:09.615Z,803.67
2018-04-01T02:39:09.624Z,803.67
2018-04-01T02:40:09.625Z,803.63
2018-04-01T02:41:09.626Z,803.63
2018-04-01T02:42:09.637Z,803.62
2018-04-01T02:43:09.633Z,803.65
2018-04-01T02:44:09.640Z,803.65
2018-04-01T02:45:09.631Z,803.62
2018-04-01T02:46:09.635Z,803.66
2018-04-01T02:47:09.656Z,803.63
2018-04-01T02:48:09.670Z,803.69
2018-04-01T02:49:09.642Z,803.71
2018-04-01T02:50:09.649Z,803.73
2018-04-01T02:51:09.650Z,803.79
2018-04-01T02:52:09.658Z,803.81
2018-04-01T02:53:09.652Z,803.84
2018-04-01T02:54:09.661Z,803.85
2018-04-01T02:55:09.658Z,803.88
2018-04-01T02:56:09.659Z,803.90
2018-04-01T02:57:09.668Z,803.89
2018-04-01T02:58:09.665Z,803.86
2018-04-01T02:59:09.676Z,803.85
2018-04-01T03:00:09.682Z,803.89
2018-04-01T03:01:09.676Z,803.89
2018-04-01T03:02:09.673Z,803.94
2018-04-01T03:03:09.725Z,803.96
2018-04-01T03:04:09.679Z,803.94
2018-04-01T03:05:09.685Z,803.97
2018-04-01T03:06:09.684Z,803.97
2018-04-01T03:07:09.690Z,803.99
2018-04-01T03:08:09.694Z,804.00
2018-04-01T03:09:09.701Z,804.02
2018-04-01T03:10:09.692Z,804.02
2018-04-01T03:11:09.705Z,804.02
2018-04-01T03:12:09.698Z,804.00
2018-04-01T03:13:09.706Z,804.00
2018-04-01T03:14:09.712Z,804.02
2018-04-01T03:15:09.711Z,804.11
2018-04-01T03:16:09.708Z,804.11
2018-04-01T03:17:09.717Z,804.09
2018-04-01T03:18:09.720Z,804.14
2018-04-01T03:19:09.723Z,804.08
2018-04-01T03:20:09.720Z,804.10
2018-04-01T03:21:09.728Z,804.08
2018-04-01T03:22:09.732Z,804.11
2018-04-01T03:23:09.736Z,804.12
2018-04-01T03:24:09.736Z,804.09
2018-04-01T03:25:09.743Z,804.13
2018-04-01T03:26:09.742Z,804.13
2018-04-01T03:27:09.739Z,804.14
2018-04-01T03:28:09.747Z,804.19
2018-04-01T03:29:09.751Z,804.22
2018-04-01T03:30:09.754Z,804.16
2018-04-01T03:31:09.757Z,804.23
2018-04-01T03:32:09.759Z,804.21
2018-04-01T03:33:09.761Z,804.19
2018-04-01T03:34:09.759Z,804.15
2018-04-01T03:35:09.767Z,804.16
2018-04-01T03:36:09.765Z,804.18
2018-04-01T03:37:09.774Z,804.18
2018-04-01T03:38:09.770Z,804.16
2018-04-01T03:39:09.778Z,804.19
2018-04-01T03:40:09.778Z,804.16
2018-04-01T03:41:09.783Z,804.22
2018-04-01T03:42:09.785Z,804.28
2018-04-01T03:43:09.790Z,804.25
2018-04-01T03:44:09.802Z,804.30
2018-04-01T03:45:09.790Z,804.30
2018-04-01T03:46:09.798Z,804.37
2018-04-01T03:47:09.801Z,804.40
2018-04-01T03:48:09.798Z,804.35
2018-04-01T03:49:09.801Z,804.38
2018-04-01T03:50:09.804Z,804.46
2018-04-01T03:51:09.806Z,804.37
2018-04-01T03:52:09.811Z,804.36
2018-04-01T03:53:09.813Z,804.37
2018-04-01T03:54:09.814Z,804.42
2018-04-01T03:55:09.821Z,804.45
2018-04-01T03:56:09.823Z,804.46
2018-04-01T03:57:09.825Z,804.46
2018-04-01T03:58:09.830Z,804.49
2018-04-01T03:59:09.826Z,804.45
2018-04-01T04:00:09.830Z,804.45
2018-04-01T04:01:09.831Z,804.48
2018-04-01T04:02:09.839Z,804.52
2018-04-01T04:03:09.844Z,804.52
2018-04-01T04:04:09.841Z,804.47
2018-04-01T04:05:09.848Z,804.53
2018-04-01T04:06:09.845Z,804.47
2018-04-01T04:07:09.856Z,804.43
2018-04-01T04:08:09.850Z,804.53
2018-04-01T04:09:09.856Z,804.54
2018-04-01T04:10:09.864Z,804.52
2018-04-01T04:11:09.859Z,804.56
2018-04-01T04:12:09.871Z,804.58
2018-04-01T04:13:09.868Z,804.56
2018-04-01T04:14:09.866Z,804.61
2018-04-01T04:15:09.873Z,804.65
2018-04-01T04:16:09.872Z,804.65
2018-04-01T04:17:09.878Z,804.65
2018-04-01T04:18:09.882Z,804.67
2018-04-01T04:19:09.883Z,804.69
2018-04-01T04:20:09.881Z,804.68
2018-04-01T04:21:09.884Z,804.68
2018-04-01T04:22:09.892Z,804.69
2018-04-01T04:23:09.898Z,804.68
2018-04-01T04:24:09.897Z,804.69
2018-04-01T04:25:09.900Z,804.72
2018-04-01T04:26:09.898Z,804.76
2018-04-01T04:27:09.901Z,804.74
2018-04-01T04:28:09.908Z,804.71
2018-04-01T04:29:09.911Z,804.75
2018-04-01T04:30:09.914Z,804.80
2018-04-01T04:31:09.919Z,804.78
2018-04-01T04:32:09.970Z,804.80
2018-04-01T04:33:09.916Z,804.78
2018-04-01T04:34:09.918Z,804.73
2018-04-01T04:35:09.923Z,804.80
2018-04-01T04:36:09.931Z,804.80
2018-04-01T04:37:09.930Z,804.81
2018-04-01T04:38:09.935Z,804.87
2018-04-01T04:39:09.940Z,804.87
2018-04-01T04:40:09.937Z,804.90
2018-04-01T04:41:09.939Z,804.90
2018-04-01T04:42:09.937Z,804.93
2018-04-01T04:43:09.946Z,804.92
2018-04-01T04:44:09.950Z,804.87
2018-04-01T04:45:09.951Z,804.93
2018-04-01T04:46:09.949Z,804.96
2018-04-01T04:47:09.952Z,804.95
2018-04-01T04:48:09.954Z,805.00
2018-04-01T04:49:09.956Z,804.99
2018-04-01T04:50:09.969Z,804.96
2018-04-01T04:51:09.961Z,805.00
2018-04-01T04:52:09.970Z,805.03
2018-04-01T04:53:09.966Z,805.04
2018-04-01T04:54:09.974Z,805.05
2018-04-01T04:55:09.971Z,805.12
2018-04-01T04:56:09.978Z,805.10
2018-04-01T04:57:09.975Z,805.09
2018-04-01T04:58:09.982Z,805.09
2018-04-01T04:59:09.980Z,805.16
2018-04-01T05:00:09.986Z,805.22
2018-04-01T05:01:09.983Z,805.22
2018-04-01T05:02:09.993Z,805.15
2018-04-01T05:03:09.994Z,805.19
2018-04-01T05:04:09.990Z,805.17
2018-04-01T05:05:09.999Z,805.11
2018-04-01T05:06:10.002Z,805.20
2018-04-01T05:07:10.004Z,805.13
2018-04-01T05:08:10.006Z,805.15
2018-04-01T05:09:10.007Z,805.17
2018-04-01T05:10:10.018Z,805.19
2018-04-01T05:11:10.016Z,805.27
2018-04-01T05:12:10.016Z,805.29
2018-04-01T05:13:10.016Z,805.32
2018-04-01T05:14:10.018Z,805.35
2018-04-01T05:15:10.022Z,805.29
2018-04-01T05:16:10.022Z,805.35
2018-04-01T05:17:10.087Z,805.33
2018-04-01T05:18:10.023Z,805.33
2018-04-01T05:19:10.024Z,805.31
2018-04-01T05:20:10.026Z,805.39
2018-04-01T05:21:10.028Z,805.47
2018-04-01T05:22:10.037Z,805.42
2018-04-01T05:23:10.039Z,805.41
2018-04-01T05:24:10.036Z,805.40
2018-04-01T05:25:10.043Z,805.39
2018-04-01T05:26:10.044Z,805.48
2018-04-01T05:27:10.042Z,805.48
2018-04-01T05:28:10.046Z,805.44
2018-04-01T05:29:10.052Z,805.44
2018-04-01T05:30:10.047Z,805.48
2018-04-01T05:31:10.054Z,805.47
2018-04-01T05:32:10.062Z,805.51
2018-04-01T05:33:10.059Z,805.51
2018-04-01T05:34:10.062Z,805.56
2018-04-01T05:35:10.059Z,805.58
2018-04-01T05:36:10.068Z,805.60
2018-04-01T05:37:10.064Z,805.59
2018-04-01T05:38:10.066Z,805.64
2018-04-01T05:39:10.068Z,805.66
2018-04-01T05:40:10.076Z,805.63
2018-04-01T05:41:10.073Z,805.61
2018-04-01T05:42:10.080Z,805.63
2018-04-01T05:43:10.084Z,805.62
2018-04-01T05:44:10.094Z,805.64
2018-04-01T05:45:10.084Z,805.67
2018-04-01T05:46:10.083Z,805.67
2018-04-01T05:47:10.086Z,805.72
2018-04-01T05:48:10.094Z,805.76
2018-04-01T05:49:10.092Z,805.78
2018-04-01T05:50:10.099Z,805.83
2018-04-01T05:51:10.100Z,805.87
2018-04-01T05:52:10.098Z,805.97
2018-04-01T05:53:10.107Z,806.01
2018-04-01T05:54:10.113Z,805.94
2018-04-01T05:55:10.110Z,805.99
2018-04-01T05:56:10.113Z,805.99
2018-04-01T05:57:10.109Z,805.98
2018-04-01T05:58:10.117Z,805.95
2018-04-01T05:59:10.121Z,805.95
2018-04-01T06:00:10.122Z,805.99
2018-04-01T06:01:10.125Z,805.97
2018-04-01T06:02:10.122Z,805.95
2018-04-01T06:03:10.123Z,805.98
2018-04-01T06:04:10.126Z,805.88
2018-04-01T06:05:10.134Z,805.97
2018-04-01T06:06:10.137Z,806.00
2018-04-01T06:07:10.140Z,806.05
2018-04-01T06:08:10.136Z,806.10
2018-04-01T06:09:10.137Z,806.04
2018-04-01T06:10:10.144Z,806.04
2018-04-01T06:11:10.142Z,806.09
2018-04-01T06:12:10.150Z,806.09
2018-04-01T06:13:10.152Z,806.08
2018-04-01T06:14:10.148Z,806.03
2018-04-01T06:15:10.156Z,806.01
2018-04-01T06:16:10.158Z,806.04
2018-04-01T06:17:10.183Z,806.09
2018-04-01T06:18:10.163Z,806.15
2018-04-01T06:19:10.166Z,806.13
2018-04-01T06:20:10.177Z,806.11
2018-04-01T06:21:10.170Z,806.11
2018-04-01T06:22:10.174Z,806.17
2018-04-01T06:23:10.170Z,806.12
2018-04-01T06:24:10.174Z,806.09
2018-04-01T06:25:10.179Z,806.09
2018-04-01T06:26:10.178Z,806.09
2018-04-01T06:27:10.184Z,806.11
2018-04-01T06:28:10.181Z,806.18
2018-04-01T06:29:10.184Z,806.20
2018-04-01T06:30:10.185Z,806.08
2018-04-01T06:31:10.193Z,806.21
2018-04-01T06:32:10.208Z,806.28
2018-04-01T06:33:10.201Z,806.23
2018-04-01T06:34:10.200Z,806.21
2018-04-01T06:35:10.203Z,806.21
2018-04-01T06:36:10.201Z,806.26
2018-04-01T06:37:10.206Z,806.26
2018-04-01T06:38:10.216Z,806.26
2018-04-01T06:39:10.208Z,806.33
2018-04-01T06:40:10.237Z,806.28
2018-04-01T06:41:10.212Z,806.29
2018-04-01T06:42:10.221Z,806.23
2018-04-01T06:43:10.223Z,806.34
2018-04-01T06:44:10.226Z,806.37
2018-04-01T06:45:10.229Z,806.34
2018-04-01T06:46:10.226Z,806.33
2018-04-01T06:47:10.228Z,806.34
2018-04-01T06:48:10.237Z,806.35
2018-04-01T06:49:10.234Z,806.26
2018-04-01T06:50:10.243Z,806.40
2018-04-01T06:51:10.249Z,806.40
2018-04-01T06:52:10.244Z,806.37
2018-04-01T06:53:10.249Z,806.36
2018-04-01T06:54:10.253Z,806.33
2018-04-01T06:55:10.251Z,806.33
2018-04-01T06:56:10.255Z,806.36
2018-04-01T06:57:10.256Z,806.42
2018-04-01T06:58:10.259Z,806.44
2018-04-01T06:59:10.272Z,806.45
2018-04-01T07:00:10.272Z,806.53
2018-04-01T07:01:10.271Z,806.55
2018-04-01T07:02:10.271Z,806.57
2018-04-01T07:03:10.273Z,806.61
2018-04-01T07:04:10.281Z,806.61
2018-04-01T07:05:10.288Z,806.58
2018-04-01T07:06:10.280Z,806.62
2018-04-01T07:07:10.285Z,806.65
2018-04-01T07:08:10.288Z,806.66
2018-04-01T07:09:10.294Z,806.65
2018-04-01T07:10:10.298Z,806.72
2018-04-01T07:11:10.303Z,806.74
2018-04-01T07:12:10.353Z,806.77
2018-04-01T07:13:10.311Z,806.80
2018-04-01T07:14:10.313Z,806.80
2018-04-01T07:15:10.318Z,806.82
2018-04-01T07:16:10.314Z,806.86
2018-04-01T07:17:10.320Z,806.86
2018-04-01T07:18:10.319Z,806.90
2018-04-01T07:19:10.321Z,806.88
2018-04-01T07:20:10.326Z,806.89
2018-04-01T07:21:10.334Z,806.94
2018-04-01T07:22:10.337Z,806.93
2018-04-01T07:23:10.340Z,806.95
2018-04-01T07:24:10.344Z,807.04
2018-04-01T07:25:10.347Z,807.01
2018-04-01T07:26:10.347Z,807.04
2018-04-01T07:27:10.348Z,807.05
2018-04-01T07:28:10.351Z,807.08
2018-04-01T07:29:10.354Z,807.09
2018-04-01T07:30:10.357Z,807.07
2018-04-01T07:31:10.361Z,807.13
2018-04-01T07:32:10.364Z,807.13
2018-04-01T07:33:10.365Z,807.11
2018-04-01T07:34:10.376Z,807.08
2018-04-01T07:35:10.375Z,807.18
2018-04-01T07:36:10.377Z,807.15
2018-04-01T07:37:10.391Z,807.20
2018-04-01T07:38:10.420Z,807.19
2018-04-01T07:39:10.393Z,807.21
2018-04-01T07:40:10.402Z,807.19
2018-04-01T07:41:10.395Z,807.20
2018-04-01T07:42:10.404Z,807.29
2018-04-01T07:43:10.402Z,807.22
2018-04-01T07:44:10.407Z,807.24
2018-04-01T07:45:10.415Z,807.24
2018-04-01T07:46:10.422Z,807.32
2018-04-01T07:47:10.424Z,807.28
2018-04-01T07:48:10.427Z,807.36
2018-04-01T07:49:10.425Z,807.38
2018-04-01T07:50:10.434Z,807.42
2018-04-01T07:51:10.436Z,807.46
2018-04-01T07:52:10.441Z,807.50
2018-04-01T07:53:10.444Z,807.52
2018-04-01T07:54:10.445Z,807.41
2018-04-01T07:55:10.445Z,807.45
2018-04-01T07:56:10.449Z,807.41
2018-04-01T07:57:10.455Z,807.46
2018-04-01T07:58:10.455Z,807.50
2018-04-01T07:59:10.467Z,807.49
2018-04-01T08:00:10.467Z,807.46
2018-04-01T08:01:10.466Z,807.46
2018-04-01T08:02:10.468Z,807.46
2018-04-01T08:03:10.479Z,807.48
2018-04-01T08:04:10.482Z,807.42
2018-04-01T08:05:10.480Z,807.45
2018-04-01T08:06:10.484Z,807.49
2018-04-01T08:07:10.490Z,807.49
2018-04-01T08:08:10.497Z,807.56
2018-04-01T08:09:10.502Z,807.60
2018-04-01T08:10:10.498Z,807.56
2018-04-01T08:11:10.509Z,807.52
2018-04-01T08:12:10.513Z,807.61
2018-04-01T08:13:10.510Z,807.61
2018-04-01T08:14:10.516Z,807.61
2018-04-01T08:15:10.520Z,807.62
2018-04-01T08:16:10.528Z,807.62
2018-04-01T08:17:10.532Z,807.61
2018-04-01T08:18:10.539Z,807.65
2018-04-01T08:19:10.540Z,807.66
2018-04-01T08:20:10.542Z,807.68
2018-04-01T08:21:10.548Z,807.66
2018-04-01T08:22:10.548Z,807.67
2018-04-01T08:23:10.554Z,807.61
2018-04-01T08:24:10.563Z,807.62
2018-04-01T08:25:10.562Z,807.64
2018-04-01T08:26:10.565Z,807.66
2018-04-01T08:27:10.573Z,807.69
2018-04-01T08:28:10.575Z,807.69
2018-04-01T08:29:10.579Z,807.68
2018-04-01T08:30:10.590Z,807.71
2018-04-01T08:31:10.593Z,807.69
2018-04-01T08:32:10.604Z,807.69
2018-04-01T08:33:10.603Z,807.68
2018-04-01T08:34:10.611Z,807.71
2018-04-01T08:35:10.613Z,807.71
2018-04-01T08:36:10.615Z,807.68
2018-04-01T08:37:10.628Z,807.67
2018-04-01T08:38:10.624Z,807.66
2018-04-01T08:39:10.627Z,807.72
2018-04-01T08:40:10.656Z,807.74
2018-04-01T08:41:10.643Z,807.75
2018-04-01T08:42:10.655Z,807.78
2018-04-01T08:43:10.649Z,807.78
2018-04-01T08:44:10.653Z,807.79
2018-04-01T08:45:10.665Z,807.82
2018-04-01T08:46:10.662Z,807.83
2018-04-01T08:47:10.667Z,807.82
2018-04-01T08:48:10.678Z,807.82
2018-04-01T08:49:10.682Z,807.86
2018-04-01T08:50:10.690Z,807.89
2018-04-01T08:51:10.689Z,807.90
2018-04-01T08:52:10.699Z,807.94
2018-04-01T08:53:10.752Z,807.93
2018-04-01T08:54:10.708Z,807.95
2018-04-01T08:55:10.716Z,807.95
2018-04-01T08:56:10.719Z,807.98
2018-04-01T08:57:10.724Z,807.98
2018-04-01T08:58:10.733Z,807.99
2018-04-01T08:59:10.733Z,808.00
2018-04-01T09:00:10.746Z,808.01
2018-04-01T09:01:10.747Z,808.01
2018-04-01T09:02:10.752Z,808.05
2018-04-01T09:03:10.757Z,808.00
2018-04-01T09:04:10.769Z,808.02
2018-04-01T09:05:10.780Z,808.05
2018-04-01T09:06:10.776Z,808.09
2018-04-01T09:07:10.792Z,808.09
2018-04-01T09:08:10.792Z,808.09
2018-04-01T09:09:10.793Z,808.11
2018-04-01T09:10:10.806Z,808.12
2018-04-01T09:11:10.813Z,808.10
2018-04-01T09:12:10.817Z,808.17
2018-04-01T09:13:10.822Z,808.14
2018-04-01T09:14:10.833Z,808.17
2018-04-01T09:15:10.837Z,808.18
2018-04-01T09:16:10.839Z,808.17
2018-04-01T09:17:10.844Z,808.20
2018-04-01T09:18:10.855Z,808.21
2018-04-01T09:19:10.862Z,808.20
2018-04-01T09:20:10.867Z,808.22
2018-04-01T09:21:10.874Z,808.20
2018-04-01T09:22:10.910Z,808.27
2018-04-01T09:23:10.887Z,808.31
2018-04-01T09:24:10.892Z,808.36
2018-04-01T09:25:10.902Z,808.39
2018-04-01T09:26:10.904Z,808.39
2018-04-01T09:27:10.905Z,808.40
2018-04-01T09:28:10.918Z,808.36
2018-04-01T09:29:10.922Z,808.42
2018-04-01T09:30:10.925Z,808.37
2018-04-01T09:31:10.932Z,808.36
2018-04-01T09:32:10.946Z,808.39
2018-04-01T09:33:10.942Z,808.39
2018-04-01T09:34:10.951Z,808.42
2018-04-01T09:35:10.962Z,808.41
2018-04-01T09:36:10.968Z,808.40
2018-04-01T09:37:10.973Z,808.35
2018-04-01T09:38:10.975Z,808.39
2018-04-01T09:39:10.987Z,808.35
2018-04-01T09:40:10.987Z,808.41
2018-04-01T09:41:10.997Z,808.39
2018-04-01T09:42:11.008Z,808.36
2018-04-01T09:43:11.023Z,808.44
2018-04-01T09:44:11.016Z,808.45
2018-04-01T09:45:11.015Z,808.45
2018-04-01T09:46:11.028Z,808.44
2018-04-01T09:47:11.034Z,808.46
2018-04-01T09:48:11.034Z,808.42
2018-04-01T09:49:11.040Z,808.47
2018-04-01T09:50:11.050Z,808.48
2018-04-01T09:51:11.058Z,808.51
2018-04-01T09:52:11.060Z,808.55
2018-04-01T09:53:11.069Z,808.59
2018-04-01T09:54:11.075Z,808.59
2018-04-01T09:55:11.084Z,808.60
2018-04-01T09:56:11.104Z,808.59
2018-04-01T09:57:11.086Z,808.59
2018-04-01T09:58:11.094Z,808.59
2018-04-01T09:59:11.099Z,808.64
2018-04-01T10:00:11.106Z,808.60
2018-04-01T10:01:11.112Z,808.59
2018-04-01T10:02:11.132Z,808.62
2018-04-01T10:03:11.127Z,808.62
2018-04-01T10:04:11.134Z,808.61
2018-04-01T10:05:11.140Z,808.63
2018-04-01T10:06:11.139Z,808.64
2018-04-01T10:07:11.147Z,808.65
2018-04-01T10:08:11.159Z,808.65
2018-04-01T10:09:11.160Z,808.66
2018-04-01T10:10:11.164Z,808.65
2018-04-01T10:11:11.177Z,808.67
2018-04-01T10:12:11.184Z,808.69
2018-04-01T10:13:11.184Z,808.66
2018-04-01T10:14:11.189Z,808.72
2018-04-01T10:15:11.245Z,808.74
2018-04-01T10:16:11.207Z,808.71
2018-04-01T10:17:11.208Z,808.70
2018-04-01T10:18:11.220Z,808.76
2018-04-01T10:19:11.226Z,808.72
2018-04-01T10:20:11.254Z,808.77
2018-04-01T10:21:11.234Z,808.77
2018-04-01T10:22:11.244Z,808.78
2018-04-01T10:23:11.253Z,808.75
2018-04-01T10:24:11.262Z,808.76
2018-04-01T10:25:11.260Z,808.74
2018-04-01T10:26:11.266Z,808.71
2018-04-01T10:27:11.274Z,808.73
2018-04-01T10:28:11.282Z,808.77
2018-04-01T10:29:11.286Z,808.77
2018-04-01T10:30:11.299Z,808.76
2018-04-01T10:31:11.307Z,808.80
2018-04-01T10:32:11.317Z,808.82
2018-04-01T10:33:11.315Z,808.83
2018-04-01T10:34:11.321Z,808.76
2018-04-01T10:35:11.329Z,808.79
2018-04-01T10:36:11.343Z,808.79
2018-04-01T10:37:11.342Z,808.75
2018-04-01T10:38:11.356Z,808.73
2018-04-01T10:39:11.363Z,808.77
2018-04-01T10:40:11.364Z,808.78
2018-04-01T10:41:11.370Z,808.73
2018-04-01T10:42:11.379Z,808.77
2018-04-01T10:43:11.392Z,808.76
2018-04-01T10:44:11.398Z,808.75
2018-04-01T10:45:11.399Z,808.81
2018-04-01T10:46:11.411Z,808.79
2018-04-01T10:47:11.418Z,808.88
2018-04-01T10:48:11.421Z,808.87
2018-04-01T10:49:11.429Z,808.87
2018-04-01T10:50:11.443Z,808.88
2018-04-01T10:51:11.452Z,808.86
2018-04-01T10:52:11.459Z,808.83
2018-04-01T10:53:11.466Z,808.88
2018-04-01T10:54:11.466Z,808.85
2018-04-01T10:55:11.474Z,808.88
2018-04-01T10:56:11.487Z,808.85
2018-04-01T10:57:11.488Z,808.89
2018-04-01T10:58:11.501Z,808.84
2018-04-01T10:59:11.506Z,808.88
2018-04-01T11:00:11.512Z,808.86
2018-04-01T11:01:11.524Z,808.93
2018-04-01T11:02:11.532Z,808.97
2018-04-01T11:03:11.532Z,808.94
2018-04-01T11:04:11.544Z,808.94
2018-04-01T11:05:11.578Z,808.95
2018-04-01T11:06:11.566Z,808.95
2018-04-01T11:07:11.601Z,808.99
2018-04-01T11:08:11.571Z,808.93
2018-04-01T11:09:11.581Z,808.98
2018-04-01T11:10:11.588Z,808.96
2018-04-01T11:11:11.594Z,809.00
2018-04-01T11:12:11.603Z,809.00
2018-04-01T11:13:11.602Z,809.04
2018-04-01T11:14:11.610Z,809.12
2018-04-01T11:15:11.624Z,809.02
2018-04-01T11:16:11.635Z,809.00
2018-04-01T11:17:11.638Z,809.01
2018-04-01T11:18:11.640Z,809.01
2018-04-01T11:19:11.649Z,808.99
2018-04-01T11:20:11.656Z,809.02
2018-04-01T11:21:11.673Z,808.98
2018-04-01T11:22:11.671Z,808.98
2018-04-01T11:23:11.681Z,809.01
2018-04-01T11:24:11.687Z,809.05
2018-04-01T11:25:11.706Z,809.04
2018-04-01T11:26:11.704Z,809.09
2018-04-01T11:27:11.716Z,809.01
2018-04-01T11:28:11.790Z,809.08
2018-04-01T11:29:11.735Z,808.90
2018-04-01T11:30:11.742Z,809.02
2018-04-01T11:31:11.757Z,809.04
2018-04-01T11:32:11.758Z,809.06
2018-04-01T11:33:11.759Z,809.00
2018-04-01T11:34:11.782Z,808.96
2018-04-01T11:35:11.779Z,809.03
2018-04-01T11:36:11.785Z,809.04
2018-04-01T11:37:11.793Z,809.04
2018-04-01T11:38:11.806Z,809.02
2018-04-01T11:39:11.810Z,809.10
2018-04-01T11:40:11.819Z,809.05
2018-04-01T11:41:11.825Z,809.07
2018-04-01T11:42:11.835Z,809.07
2018-04-01T11:43:11.844Z,809.07
2018-04-01T11:44:11.857Z,809.11
2018-04-01T11:45:11.865Z,809.15
2018-04-01T11:46:11.872Z,809.17
2018-04-01T11:47:11.874Z,809.17
2018-04-01T11:48:11.883Z,809.14
2018-04-01T11:49:11.891Z,809.15
2018-04-01T11:50:11.899Z,809.15
2018-04-01T11:51:11.915Z,809.17
2018-04-01T11:52:11.922Z,809.14
2018-04-01T11:53:11.926Z,809.16
2018-04-01T11:54:11.940Z,809.13
2018-04-01T11:55:11.947Z,809.14
2018-04-01T11:56:11.958Z,809.13
2018-04-01T11:57:11.982Z,809.11
2018-04-01T11:58:11.977Z,809.09
2018-04-01T11:59:11.990Z,809.15
2018-04-01T12:00:11.993Z,809.15
2018-04-01T12:01:12.012Z,809.13
2018-04-01T12:02:12.011Z,809.20
2018-04-01T12:03:12.034Z,809.20
2018-04-01T12:04:12.037Z,809.15
2018-04-01T12:05:12.042Z,809.11
2018-04-01T12:06:12.056Z,809.07
2018-04-01T12:07:12.068Z,809.08
2018-04-01T12:08:12.079Z,809.05
2018-04-01T12:09:12.089Z,809.06
2018-04-01T12:10:12.100Z,809.08
2018-04-01T12:11:12.111Z,809.11
2018-04-01T12:12:12.119Z,809.08
2018-04-01T12:13:12.125Z,809.07
2018-04-01T12:14:12.142Z,809.10
2018-04-01T12:15:12.146Z,809.04
2018-04-01T12:16:12.163Z,809.03
2018-04-01T12:17:12.170Z,809.02
2018-04-01T12:18:12.183Z,809.01
2018-04-01T12:19:12.191Z,809.01
2018-04-01T12:20:12.194Z,809.00
2018-04-01T12:21:12.203Z,809.03
2018-04-01T12:22:12.213Z,808.99
2018-04-01T12:23:12.228Z,808.99
2018-04-01T12:24:12.239Z,808.95
2018-04-01T12:25:12.248Z,808.94
2018-04-01T12:26:12.259Z,808.96
2018-04-01T12:27:12.267Z,809.04
2018-04-01T12:28:12.270Z,809.06